sensor_id;sensor_type;location;lat;lon;timestamp;pressure;altitude;pressure_sealevel;temperature;humidity
8637;BME280;4356;49.068;8.658;2022-12-18T00:01:57;101072.25;;;13.95;29.38
8637;BME280;4356;49.068;8.658;2022-12-18T00:04:25;101067.00;;;13.93;29.75
8637;BME280;4356;49.068;8.658;2022-12-18T00:06:51;101081.19;;;13.95;29.56
8637;BME280;4356;49.068;8.658;2022-12-18T00:09:18;101079.50;;;13.94;29.40
8637;BME280;4356;49.068;8.658;2022-12-18T00:11:44;101083.06;;;13.95;29.58
8637;BME280;4356;49.068;8.658;2022-12-18T00:14:11;101088.78;;;13.92;29.31
8637;BME280;4356;49.068;8.658;2022-12-18T00:16:37;101085.78;;;13.95;29.68
8637;BME280;4356;49.068;8.658;2022-12-18T00:19:04;101071.53;;;13.85;29.25
8637;BME280;4356;49.068;8.658;2022-12-18T00:21:33;101084.91;;;13.94;29.15
8637;BME280;4356;49.068;8.658;2022-12-18T00:23:59;101089.63;;;13.92;29.20
8637;BME280;4356;49.068;8.658;2022-12-18T00:26:28;101076.78;;;13.86;29.02
8637;BME280;4356;49.068;8.658;2022-12-18T00:28:55;101074.41;;;13.83;29.44
8637;BME280;4356;49.068;8.658;2022-12-18T00:31:24;101084.22;;;13.92;29.44
8637;BME280;4356;49.068;8.658;2022-12-18T00:33:50;101081.88;;;13.89;29.56
8637;BME280;4356;49.068;8.658;2022-12-18T00:36:18;101071.69;;;13.83;29.51
8637;BME280;4356;49.068;8.658;2022-12-18T00:38:47;101090.78;;;13.90;29.46
8637;BME280;4356;49.068;8.658;2022-12-18T00:41:14;101094.69;;;13.87;29.54
8637;BME280;4356;49.068;8.658;2022-12-18T00:44:01;101096.03;;;13.83;29.65
8637;BME280;4356;49.068;8.658;2022-12-18T00:46:27;101106.81;;;13.83;28.94
8637;BME280;4356;49.068;8.658;2022-12-18T00:48:52;101101.25;;;13.85;28.97
8637;BME280;4356;49.068;8.658;2022-12-18T00:51:18;101081.13;;;13.79;29.24
8637;BME280;4356;49.068;8.658;2022-12-18T00:53:44;101086.88;;;13.84;29.52
8637;BME280;4356;49.068;8.658;2022-12-18T00:56:09;101079.81;;;13.83;28.96
8637;BME280;4356;49.068;8.658;2022-12-18T00:58:35;101083.53;;;13.82;29.66
8637;BME280;4356;49.068;8.658;2022-12-18T01:01:00;101092.47;;;13.83;29.08
8637;BME280;4356;49.068;8.658;2022-12-18T01:03:26;101100.91;;;13.80;29.73
8637;BME280;4356;49.068;8.658;2022-12-18T01:05:52;101105.28;;;13.81;29.36
8637;BME280;4356;49.068;8.658;2022-12-18T01:08:17;101103.59;;;13.80;29.79
8637;BME280;4356;49.068;8.658;2022-12-18T01:10:43;101092.97;;;13.78;29.33
8637;BME280;4356;49.068;8.658;2022-12-18T01:13:09;101082.16;;;13.78;29.59
8637;BME280;4356;49.068;8.658;2022-12-18T01:15:34;101084.84;;;13.78;29.39
8637;BME280;4356;49.068;8.658;2022-12-18T01:18:00;101069.28;;;13.72;29.48
8637;BME280;4356;49.068;8.658;2022-12-18T01:20:26;101082.16;;;13.78;29.44
8637;BME280;4356;49.068;8.658;2022-12-18T01:22:51;101072.00;;;13.72;29.34
8637;BME280;4356;49.068;8.658;2022-12-18T01:25:17;101081.13;;;13.79;29.70
8637;BME280;4356;49.068;8.658;2022-12-18T01:27:43;101088.38;;;13.79;29.20
8637;BME280;4356;49.068;8.658;2022-12-18T01:30:09;101096.66;;;13.77;29.06
8637;BME280;4356;49.068;8.658;2022-12-18T01:32:35;101098.69;;;13.75;29.51
8637;BME280;4356;49.068;8.658;2022-12-18T01:35:00;101087.03;;;13.75;29.57
8637;BME280;4356;49.068;8.658;2022-12-18T01:37:26;101080.94;;;13.73;28.91
8637;BME280;4356;49.068;8.658;2022-12-18T01:39:52;101083.47;;;13.74;29.52
8637;BME280;4356;49.068;8.658;2022-12-18T01:42:20;101086.34;;;13.73;29.62
8637;BME280;4356;49.068;8.658;2022-12-18T01:45:06;101096.13;;;13.74;29.40
8637;BME280;4356;49.068;8.658;2022-12-18T01:47:54;101082.09;;;13.70;29.45
8637;BME280;4356;49.068;8.658;2022-12-18T01:50:40;101085.66;;;13.71;28.99
8637;BME280;4356;49.068;8.658;2022-12-18T01:53:13;101105.56;;;13.70;29.69
8637;BME280;4356;49.068;8.658;2022-12-18T01:55:49;101108.28;;;13.70;29.59
8637;BME280;4356;49.068;8.658;2022-12-18T01:58:17;101098.81;;;13.66;29.18
8637;BME280;4356;49.068;8.658;2022-12-18T02:00:43;101110.44;;;13.66;29.48
8637;BME280;4356;49.068;8.658;2022-12-18T02:03:08;101099.66;;;13.66;29.20
8637;BME280;4356;49.068;8.658;2022-12-18T02:06:20;101084.97;;;13.69;29.25
8637;BME280;4356;49.068;8.658;2022-12-18T02:08:57;101085.47;;;13.64;28.98
8637;BME280;4356;49.068;8.658;2022-12-18T02:11:37;101094.94;;;13.68;29.12
8637;BME280;4356;49.068;8.658;2022-12-18T02:16:53;101103.03;;;13.68;29.01
8637;BME280;4356;49.068;8.658;2022-12-18T02:22:37;101088.84;;;13.66;29.46
8637;BME280;4356;49.068;8.658;2022-12-18T02:28:11;101097.28;;;13.63;29.55
8637;BME280;4356;49.068;8.658;2022-12-18T02:30:39;101089.00;;;13.57;29.61
8637;BME280;4356;49.068;8.658;2022-12-18T02:33:07;101106.53;;;13.61;29.60
8637;BME280;4356;49.068;8.658;2022-12-18T02:35:34;101108.09;;;13.63;29.80
8637;BME280;4356;49.068;8.658;2022-12-18T02:38:03;101102.00;;;13.61;29.38
8637;BME280;4356;49.068;8.658;2022-12-18T02:40:30;101098.31;;;13.62;29.61
8637;BME280;4356;49.068;8.658;2022-12-18T02:43:02;101103.19;;;13.59;29.63
8637;BME280;4356;49.068;8.658;2022-12-18T02:45:28;101114.50;;;13.62;29.80
8637;BME280;4356;49.068;8.658;2022-12-18T02:47:53;101099.13;;;13.63;29.75
8637;BME280;4356;49.068;8.658;2022-12-18T02:50:34;101093.19;;;13.59;29.84
8637;BME280;4356;49.068;8.658;2022-12-18T02:53:18;101101.31;;;13.59;29.25
8637;BME280;4356;49.068;8.658;2022-12-18T03:01:03;101113.28;;;13.57;29.11
8637;BME280;4356;49.068;8.658;2022-12-18T03:03:40;101124.63;;;13.60;29.50
8637;BME280;4356;49.068;8.658;2022-12-18T03:09:18;101115.66;;;13.60;29.28
8637;BME280;4356;49.068;8.658;2022-12-18T03:11:49;101114.97;;;13.58;29.20
8637;BME280;4356;49.068;8.658;2022-12-18T03:14:37;101106.00;;;13.57;29.27
8637;BME280;4356;49.068;8.658;2022-12-18T03:17:06;101112.28;;;13.58;29.40
8637;BME280;4356;49.068;8.658;2022-12-18T03:19:33;101095.38;;;13.56;29.31
8637;BME280;4356;49.068;8.658;2022-12-18T03:22:02;101097.91;;;13.57;29.36
8637;BME280;4356;49.068;8.658;2022-12-18T03:24:29;101069.66;;;13.43;29.33
8637;BME280;4356;49.068;8.658;2022-12-18T03:27:10;101096.41;;;13.55;29.65
8637;BME280;4356;49.068;8.658;2022-12-18T03:29:38;101107.22;;;13.55;29.59
8637;BME280;4356;49.068;8.658;2022-12-18T03:32:08;101101.13;;;13.53;29.23
8637;BME280;4356;49.068;8.658;2022-12-18T03:34:37;101091.09;;;13.45;29.37
8637;BME280;4356;49.068;8.658;2022-12-18T03:37:05;101096.41;;;13.55;28.92
8637;BME280;4356;49.068;8.658;2022-12-18T03:39:31;101090.47;;;13.51;29.53
8637;BME280;4356;49.068;8.658;2022-12-18T03:44:33;101097.25;;;13.55;29.69
8637;BME280;4356;49.068;8.658;2022-12-18T03:50:11;101083.88;;;13.54;29.22
8637;BME280;4356;49.068;8.658;2022-12-18T03:52:49;101090.16;;;13.54;29.40
8637;BME280;4356;49.068;8.658;2022-12-18T03:55:19;101085.75;;;13.53;29.82
8637;BME280;4356;49.068;8.658;2022-12-18T03:57:47;101085.06;;;13.51;29.54
8637;BME280;4356;49.068;8.658;2022-12-18T04:00:16;101078.50;;;13.54;29.01
8637;BME280;4356;49.068;8.658;2022-12-18T04:02:50;101084.75;;;13.54;29.53
8637;BME280;4356;49.068;8.658;2022-12-18T04:05:18;101079.50;;;13.53;29.21
8637;BME280;4356;49.068;8.658;2022-12-18T04:07:48;101079.97;;;13.48;29.35
8637;BME280;4356;49.068;8.658;2022-12-18T04:10:16;101073.59;;;13.49;29.22
8637;BME280;4356;49.068;8.658;2022-12-18T04:12:42;101076.63;;;13.54;29.25
8637;BME280;4356;49.068;8.658;2022-12-18T04:15:09;101093.88;;;13.53;29.49
8637;BME280;4356;49.068;8.658;2022-12-18T04:17:36;101092.16;;;13.52;29.23
8637;BME280;4356;49.068;8.658;2022-12-18T04:20:02;101086.75;;;13.52;29.67
8637;BME280;4356;49.068;8.658;2022-12-18T04:22:28;101059.56;;;13.46;29.27
8637;BME280;4356;49.068;8.658;2022-12-18T04:24:53;101060.09;;;13.49;29.23
8637;BME280;4356;49.068;8.658;2022-12-18T04:27:19;101067.16;;;13.50;29.13
8637;BME280;4356;49.068;8.658;2022-12-18T04:29:45;101080.66;;;13.50;29.43
8637;BME280;4356;49.068;8.658;2022-12-18T04:32:10;101066.81;;;13.45;29.32
8637;BME280;4356;49.068;8.658;2022-12-18T04:34:36;101075.94;;;13.52;29.31
8637;BME280;4356;49.068;8.658;2022-12-18T04:37:02;101079.69;;;13.51;28.96
8637;BME280;4356;49.068;8.658;2022-12-18T04:39:28;101070.19;;;13.47;29.28
8637;BME280;4356;49.068;8.658;2022-12-18T04:41:53;101062.09;;;13.47;29.07
8637;BME280;4356;49.068;8.658;2022-12-18T04:44:19;101065.31;;;13.51;29.58
8637;BME280;4356;49.068;8.658;2022-12-18T04:46:44;101073.59;;;13.49;29.25
8637;BME280;4356;49.068;8.658;2022-12-18T04:49:10;101076.75;;;13.44;29.72
8637;BME280;4356;49.068;8.658;2022-12-18T04:51:36;101069.50;;;13.45;29.22
8637;BME280;4356;49.068;8.658;2022-12-18T04:54:02;101064.97;;;13.46;29.01
8637;BME280;4356;49.068;8.658;2022-12-18T04:56:31;101074.56;;;13.48;29.21
8637;BME280;4356;49.068;8.658;2022-12-18T04:58:57;101063.25;;;13.44;29.23
8637;BME280;4356;49.068;8.658;2022-12-18T05:01:22;101069.50;;;13.45;29.24
8637;BME280;4356;49.068;8.658;2022-12-18T05:03:48;101071.19;;;13.46;29.42
8637;BME280;4356;49.068;8.658;2022-12-18T05:06:14;101071.50;;;13.43;29.30
8637;BME280;4356;49.068;8.658;2022-12-18T05:08:40;101076.59;;;13.46;29.66
8637;BME280;4356;49.068;8.658;2022-12-18T05:11:08;101073.53;;;13.41;29.19
8637;BME280;4356;49.068;8.658;2022-12-18T05:13:35;101080.31;;;13.45;29.66
8637;BME280;4356;49.068;8.658;2022-12-18T05:16:02;101091.78;;;13.47;29.18
8637;BME280;4356;49.068;8.658;2022-12-18T05:18:28;101075.25;;;13.42;29.17
8637;BME280;4356;49.068;8.658;2022-12-18T05:20:54;101089.72;;;13.41;29.01
8637;BME280;4356;49.068;8.658;2022-12-18T05:23:21;101097.53;;;13.44;29.52
8637;BME280;4356;49.068;8.658;2022-12-18T05:26:01;101093.28;;;13.41;29.18
8637;BME280;4356;49.068;8.658;2022-12-18T05:28:29;101096.69;;;13.43;29.25
8637;BME280;4356;49.068;8.658;2022-12-18T05:30:57;101081.63;;;13.41;29.12
8637;BME280;4356;49.068;8.658;2022-12-18T05:33:24;101086.50;;;13.37;29.11
8637;BME280;4356;49.068;8.658;2022-12-18T05:35:52;101090.75;;;13.40;29.12
8637;BME280;4356;49.068;8.658;2022-12-18T05:38:19;101098.53;;;13.43;29.30
8637;BME280;4356;49.068;8.658;2022-12-18T05:40:45;101101.38;;;13.41;29.24
8637;BME280;4356;49.068;8.658;2022-12-18T05:43:11;101086.66;;;13.36;29.24
8637;BME280;4356;49.068;8.658;2022-12-18T05:45:38;101083.63;;;13.39;29.55
8637;BME280;4356;49.068;8.658;2022-12-18T05:48:04;101086.50;;;13.37;29.10
8637;BME280;4356;49.068;8.658;2022-12-18T05:50:30;101075.69;;;13.37;29.27
8637;BME280;4356;49.068;8.658;2022-12-18T05:52:56;101075.41;;;13.40;29.69
8637;BME280;4356;49.068;8.658;2022-12-18T05:55:21;101073.84;;;13.38;29.33
8637;BME280;4356;49.068;8.658;2022-12-18T05:57:47;101063.41;;;13.35;29.19
8637;BME280;4356;49.068;8.658;2022-12-18T06:00:13;101076.41;;;13.39;29.21
8637;BME280;4356;49.068;8.658;2022-12-18T06:02:39;101071.16;;;13.38;29.18
8637;BME280;4356;49.068;8.658;2022-12-18T06:05:05;101063.22;;;13.36;29.20
8637;BME280;4356;49.068;8.658;2022-12-18T06:07:30;101081.63;;;13.41;29.44
8637;BME280;4356;49.068;8.658;2022-12-18T06:09:56;101083.50;;;13.40;29.00
8637;BME280;4356;49.068;8.658;2022-12-18T06:12:22;101093.63;;;13.38;29.53
8637;BME280;4356;49.068;8.658;2022-12-18T06:14:47;101087.34;;;13.38;29.19
8637;BME280;4356;49.068;8.658;2022-12-18T06:17:13;101092.59;;;13.39;29.29
8637;BME280;4356;49.068;8.658;2022-12-18T06:19:38;101100.53;;;13.41;29.18
8637;BME280;4356;49.068;8.658;2022-12-18T06:22:04;101101.72;;;13.38;29.21
8637;BME280;4356;49.068;8.658;2022-12-18T06:24:30;101090.31;;;13.27;29.41
8637;BME280;4356;49.068;8.658;2022-12-18T06:26:56;101114.03;;;13.41;29.47
8637;BME280;4356;49.068;8.658;2022-12-18T06:29:21;101118.06;;;13.37;28.84
8637;BME280;4356;49.068;8.658;2022-12-18T06:31:47;101123.16;;;13.40;29.21
8637;BME280;4356;49.068;8.658;2022-12-18T06:34:12;101122.13;;;13.41;29.67
8637;BME280;4356;49.068;8.658;2022-12-18T06:36:38;101123.63;;;13.35;29.33
8637;BME280;4356;49.068;8.658;2022-12-18T06:39:04;101133.94;;;13.40;29.12
8637;BME280;4356;49.068;8.658;2022-12-18T06:41:29;101132.41;;;13.37;29.34
8637;BME280;4356;49.068;8.658;2022-12-18T06:43:55;101132.78;;;13.42;29.09
8637;BME280;4356;49.068;8.658;2022-12-18T06:46:21;101135.47;;;13.42;28.90
8637;BME280;4356;49.068;8.658;2022-12-18T06:48:48;101141.88;;;13.41;29.11
8637;BME280;4356;49.068;8.658;2022-12-18T06:51:19;101142.06;;;13.40;29.49
8637;BME280;4356;49.068;8.658;2022-12-18T06:53:45;101145.75;;;13.39;29.08
8637;BME280;4356;49.068;8.658;2022-12-18T06:56:11;101149.47;;;13.38;29.27
8637;BME280;4356;49.068;8.658;2022-12-18T06:58:38;101158.09;;;13.41;29.21
8637;BME280;4356;49.068;8.658;2022-12-18T07:01:07;101148.31;;;13.40;28.63
8637;BME280;4356;49.068;8.658;2022-12-18T07:03:33;101154.69;;;13.39;28.97
8637;BME280;4356;49.068;8.658;2022-12-18T07:06:00;101155.56;;;13.40;29.47
8637;BME280;4356;49.068;8.658;2022-12-18T07:08:25;101159.09;;;13.40;29.22
8637;BME280;4356;49.068;8.658;2022-12-18T07:10:51;101152.69;;;13.41;29.40
8637;BME280;4356;49.068;8.658;2022-12-18T07:13:18;101162.47;;;13.42;29.11
8637;BME280;4356;49.068;8.658;2022-12-18T07:15:44;101161.66;;;13.42;28.93
8637;BME280;4356;49.068;8.658;2022-12-18T07:18:09;101153.16;;;13.37;28.76
8637;BME280;4356;49.068;8.658;2022-12-18T07:20:36;101169.06;;;13.40;28.90
8637;BME280;4356;49.068;8.658;2022-12-18T07:23:03;101152.78;;;13.32;29.00
8637;BME280;4356;49.068;8.658;2022-12-18T07:25:29;101174.28;;;13.41;29.08
8637;BME280;4356;49.068;8.658;2022-12-18T07:27:54;101160.25;;;13.38;29.23
8637;BME280;4356;49.068;8.658;2022-12-18T07:30:20;101171.44;;;13.43;29.45
8637;BME280;4356;49.068;8.658;2022-12-18T07:32:46;101164.63;;;13.39;28.91
8637;BME280;4356;49.068;8.658;2022-12-18T07:35:12;101169.22;;;13.38;29.21
8637;BME280;4356;49.068;8.658;2022-12-18T07:37:37;101178.16;;;13.39;29.33
8637;BME280;4356;49.068;8.658;2022-12-18T07:40:03;101178.16;;;13.39;29.25
8637;BME280;4356;49.068;8.658;2022-12-18T07:42:29;101178.00;;;13.40;29.29
8637;BME280;4356;49.068;8.658;2022-12-18T07:45:01;101185.25;;;13.40;29.38
8637;BME280;4356;49.068;8.658;2022-12-18T07:47:28;101191.34;;;13.42;29.23
8637;BME280;4356;49.068;8.658;2022-12-18T07:49:53;101189.63;;;13.41;29.49
8637;BME280;4356;49.068;8.658;2022-12-18T07:52:19;101188.66;;;13.42;28.88
8637;BME280;4356;49.068;8.658;2022-12-18T07:54:45;101194.34;;;13.39;29.02
8637;BME280;4356;49.068;8.658;2022-12-18T07:57:11;101192.50;;;13.39;29.10
8637;BME280;4356;49.068;8.658;2022-12-18T07:59:36;101191.66;;;13.39;29.31
8637;BME280;4356;49.068;8.658;2022-12-18T08:02:02;101192.81;;;13.36;29.30
8637;BME280;4356;49.068;8.658;2022-12-18T08:04:28;101202.97;;;13.42;28.99
8637;BME280;4356;49.068;8.658;2022-12-18T08:06:54;101207.16;;;13.37;29.15
8637;BME280;4356;49.068;8.658;2022-12-18T08:09:19;101205.16;;;13.39;29.23
8637;BME280;4356;49.068;8.658;2022-12-18T08:11:45;101214.97;;;13.40;29.16
8637;BME280;4356;49.068;8.658;2022-12-18T08:14:11;101207.56;;;13.42;29.41
8637;BME280;4356;49.068;8.658;2022-12-18T08:16:36;101209.22;;;13.43;28.81
8637;BME280;4356;49.068;8.658;2022-12-18T08:19:02;101200.94;;;13.36;29.38
8637;BME280;4356;49.068;8.658;2022-12-18T08:21:30;101210.25;;;13.42;28.90
8637;BME280;4356;49.068;8.658;2022-12-18T08:23:58;101216.03;;;13.47;28.84
8637;BME280;4356;49.068;8.658;2022-12-18T08:26:27;101206.22;;;13.46;29.23
8637;BME280;4356;49.068;8.658;2022-12-18T08:28:57;101197.56;;;13.42;28.90
8637;BME280;4356;49.068;8.658;2022-12-18T08:31:25;101194.06;;;13.42;28.81
8637;BME280;4356;49.068;8.658;2022-12-18T08:33:52;101209.31;;;13.51;29.08
8637;BME280;4356;49.068;8.658;2022-12-18T08:36:21;101210.28;;;13.50;29.06
8637;BME280;4356;49.068;8.658;2022-12-18T08:38:47;101203.06;;;13.51;28.86
8637;BME280;4356;49.068;8.658;2022-12-18T08:41:14;101194.78;;;13.52;28.98
8637;BME280;4356;49.068;8.658;2022-12-18T08:43:40;101187.91;;;13.58;29.31
8637;BME280;4356;49.068;8.658;2022-12-18T08:46:26;101185.88;;;13.60;28.98
8637;BME280;4356;49.068;8.658;2022-12-18T08:48:53;101178.31;;;13.63;28.91
8637;BME280;4356;49.068;8.658;2022-12-18T08:51:20;101157.72;;;13.62;28.82
8637;BME280;4356;49.068;8.658;2022-12-18T08:53:47;101163.66;;;13.66;28.72
8637;BME280;4356;49.068;8.658;2022-12-18T08:56:13;101168.41;;;13.72;28.94
8637;BME280;4356;49.068;8.658;2022-12-18T08:58:40;101170.28;;;13.71;29.07
8637;BME280;4356;49.068;8.658;2022-12-18T09:01:07;101169.59;;;13.77;28.98
8637;BME280;4356;49.068;8.658;2022-12-18T09:03:34;101156.63;;;13.81;29.12
8637;BME280;4356;49.068;8.658;2022-12-18T09:06:00;101141.44;;;13.80;28.84
8637;BME280;4356;49.068;8.658;2022-12-18T09:08:27;101152.44;;;13.86;28.57
8637;BME280;4356;49.068;8.658;2022-12-18T09:10:53;101155.66;;;13.90;28.64
8637;BME280;4356;49.068;8.658;2022-12-18T09:13:19;101141.09;;;13.83;28.83
8637;BME280;4356;49.068;8.658;2022-12-18T09:15:49;101146.91;;;13.96;28.51
8637;BME280;4356;49.068;8.658;2022-12-18T09:18:17;101140.47;;;13.97;28.89
8637;BME280;4356;49.068;8.658;2022-12-18T09:20:43;101126.31;;;13.95;28.72
8637;BME280;4356;49.068;8.658;2022-12-18T09:23:10;101144.91;;;14.06;28.67
8637;BME280;4356;49.068;8.658;2022-12-18T09:25:36;101133.78;;;14.09;28.75
8637;BME280;4356;49.068;8.658;2022-12-18T09:28:04;101136.50;;;14.09;28.26
8637;BME280;4356;49.068;8.658;2022-12-18T09:30:30;101140.72;;;14.11;28.71
8637;BME280;4356;49.068;8.658;2022-12-18T09:32:59;101144.09;;;14.13;28.57
8637;BME280;4356;49.068;8.658;2022-12-18T09:35:24;101165.94;;;14.20;28.30
8637;BME280;4356;49.068;8.658;2022-12-18T09:37:50;101161.34;;;14.20;28.43
8637;BME280;4356;49.068;8.658;2022-12-18T09:40:22;101174.09;;;14.28;28.74
8637;BME280;4356;49.068;8.658;2022-12-18T09:42:56;101162.56;;;14.26;28.34
8637;BME280;4356;49.068;8.658;2022-12-18T09:45:23;101169.88;;;14.33;28.54
8637;BME280;4356;49.068;8.658;2022-12-18T09:47:51;101163.47;;;14.34;29.10
8637;BME280;4356;49.068;8.658;2022-12-18T09:52:45;101188.84;;;14.41;27.91
8637;BME280;4356;49.068;8.658;2022-12-18T09:57:52;101209.81;;;14.48;28.51
8637;BME280;4356;49.068;8.658;2022-12-18T10:00:22;101204.63;;;14.54;28.18
8637;BME280;4356;49.068;8.658;2022-12-18T10:02:50;101196.31;;;14.56;28.11
8637;BME280;4356;49.068;8.658;2022-12-18T10:05:35;101197.53;;;14.61;28.53
8637;BME280;4356;49.068;8.658;2022-12-18T10:08:21;101200.06;;;14.63;28.20
8637;BME280;4356;49.068;8.658;2022-12-18T10:10:53;101191.78;;;14.64;28.39
8637;BME280;4356;49.068;8.658;2022-12-18T10:13:31;101182.31;;;14.68;28.59
8637;BME280;4356;49.068;8.658;2022-12-18T10:18:31;101187.06;;;14.74;28.49
8637;BME280;4356;49.068;8.658;2022-12-18T10:21:18;101199.41;;;14.77;28.31
8637;BME280;4356;49.068;8.658;2022-12-18T10:23:53;101191.78;;;14.80;28.23
8637;BME280;4356;49.068;8.658;2022-12-18T10:26:21;101185.22;;;14.83;27.99
8637;BME280;4356;49.068;8.658;2022-12-18T10:28:47;101171.84;;;14.73;28.23
8637;BME280;4356;49.068;8.658;2022-12-18T10:31:17;101189.28;;;14.87;28.08
8637;BME280;4356;49.068;8.658;2022-12-18T10:33:43;101185.72;;;14.86;27.98
8637;BME280;4356;49.068;8.658;2022-12-18T10:36:08;101179.13;;;14.81;28.54
8637;BME280;4356;49.068;8.658;2022-12-18T10:38:34;101188.94;;;14.90;28.08
8637;BME280;4356;49.068;8.658;2022-12-18T10:41:03;101183.22;;;14.93;28.00
8637;BME280;4356;49.068;8.658;2022-12-18T10:43:38;101180.34;;;14.94;28.28
8637;BME280;4356;49.068;8.658;2022-12-18T10:48:41;101149.72;;;14.94;28.12
8637;BME280;4356;49.068;8.658;2022-12-18T10:51:30;101163.41;;;15.00;27.95
8637;BME280;4356;49.068;8.658;2022-12-18T10:54:17;101164.94;;;15.03;28.27
8637;BME280;4356;49.068;8.658;2022-12-18T10:56:44;101158.84;;;15.01;27.96
8637;BME280;4356;49.068;8.658;2022-12-18T10:59:11;101163.91;;;15.04;28.07
8637;BME280;4356;49.068;8.658;2022-12-18T11:01:55;101156.28;;;15.07;28.62
8637;BME280;4356;49.068;8.658;2022-12-18T11:04:23;101162.25;;;15.11;28.14
8637;BME280;4356;49.068;8.658;2022-12-18T11:07:03;101163.75;;;15.13;27.87
8637;BME280;4356;49.068;8.658;2022-12-18T11:09:33;101168.00;;;15.16;28.46
8637;BME280;4356;49.068;8.658;2022-12-18T11:12:02;101187.63;;;15.18;28.04
8637;BME280;4356;49.068;8.658;2022-12-18T11:14:32;101170.53;;;15.17;27.96
8637;BME280;4356;49.068;8.658;2022-12-18T11:17:00;101156.81;;;15.19;28.48
8637;BME280;4356;49.068;8.658;2022-12-18T11:21:54;101165.75;;;15.27;27.93
8637;BME280;4356;49.068;8.658;2022-12-18T11:24:29;101176.78;;;15.26;28.07
8637;BME280;4356;49.068;8.658;2022-12-18T11:26:58;101170.34;;;15.27;27.98
8637;BME280;4356;49.068;8.658;2022-12-18T11:29:36;101152.56;;;15.32;28.22
8637;BME280;4356;49.068;8.658;2022-12-18T11:34:49;101152.41;;;15.34;28.50
8637;BME280;4356;49.068;8.658;2022-12-18T11:37:17;101145.09;;;15.34;28.29
8637;BME280;4356;49.068;8.658;2022-12-18T11:39:51;101157.28;;;15.38;28.37
8637;BME280;4356;49.068;8.658;2022-12-18T11:42:27;101160.84;;;15.39;28.31
8637;BME280;4356;49.068;8.658;2022-12-18T11:45:08;101160.72;;;15.40;28.40
8637;BME280;4356;49.068;8.658;2022-12-18T11:47:54;101157.00;;;15.41;28.42
8637;BME280;4356;49.068;8.658;2022-12-18T11:53:02;101153.25;;;15.42;28.60
8637;BME280;4356;49.068;8.658;2022-12-18T11:58:47;101122.59;;;15.34;28.65
8637;BME280;4356;49.068;8.658;2022-12-18T12:04:15;101139.34;;;15.45;28.68
8637;BME280;4356;49.068;8.658;2022-12-18T12:09:55;101126.31;;;15.49;28.47
8637;BME280;4356;49.068;8.658;2022-12-18T12:15:30;101130.91;;;15.49;28.57
8637;BME280;4356;49.068;8.658;2022-12-18T12:29:41;101107.88;;;15.44;29.37
8637;BME280;4356;49.068;8.658;2022-12-18T12:35:37;101111.09;;;15.48;28.91
8637;BME280;4356;49.068;8.658;2022-12-18T12:38:09;101134.44;;;15.49;28.86
8637;BME280;4356;49.068;8.658;2022-12-18T12:40:40;101108.88;;;15.35;29.14
8637;BME280;4356;49.068;8.658;2022-12-18T12:46:10;101131.72;;;15.49;29.56
8637;BME280;4356;49.068;8.658;2022-12-18T12:48:51;101125.13;;;15.52;29.35
8637;BME280;4356;49.068;8.658;2022-12-18T12:51:27;101112.75;;;15.49;28.68
8637;BME280;4356;49.068;8.658;2022-12-18T12:53:56;101121.75;;;15.50;28.97
8637;BME280;4356;49.068;8.658;2022-12-18T12:56:25;101121.41;;;15.53;29.37
8637;BME280;4356;49.068;8.658;2022-12-18T12:59:02;101123.94;;;15.54;29.09
8637;BME280;4356;49.068;8.658;2022-12-18T13:01:39;101117.00;;;15.52;29.53
8637;BME280;4356;49.068;8.658;2022-12-18T13:04:23;101118.34;;;15.56;29.41
8637;BME280;4356;49.068;8.658;2022-12-18T13:07:16;101118.53;;;15.54;29.90
8637;BME280;4356;49.068;8.658;2022-12-18T13:13:06;101108.50;;;15.55;29.77
8637;BME280;4356;49.068;8.658;2022-12-18T13:15:45;101105.81;;;15.55;29.28
8637;BME280;4356;49.068;8.658;2022-12-18T13:25:51;101093.28;;;15.54;29.49
8637;BME280;4356;49.068;8.658;2022-12-18T13:28:50;101074.84;;;15.49;29.56
8637;BME280;4356;49.068;8.658;2022-12-18T13:31:09;101071.13;;;15.50;29.60
8637;BME280;4356;49.068;8.658;2022-12-18T13:36:09;101058.25;;;15.52;29.95
8637;BME280;4356;49.068;8.658;2022-12-18T13:38:38;101061.16;;;15.51;29.38
8637;BME280;4356;49.068;8.658;2022-12-18T13:41:26;101056.91;;;15.48;30.00
8637;BME280;4356;49.068;8.658;2022-12-18T13:43:55;101068.06;;;15.53;29.30
8637;BME280;4356;49.068;8.658;2022-12-18T13:46:28;101059.25;;;15.51;29.63
8637;BME280;4356;49.068;8.658;2022-12-18T13:48:57;101065.34;;;15.53;29.73
8637;BME280;4356;49.068;8.658;2022-12-18T13:51:24;101061.81;;;15.53;29.64
8637;BME280;4356;49.068;8.658;2022-12-18T13:56:28;101063.50;;;15.54;29.64
8637;BME280;4356;49.068;8.658;2022-12-18T13:59:23;101070.75;;;15.53;29.63
8637;BME280;4356;49.068;8.658;2022-12-18T14:01:57;101061.28;;;15.49;29.12
8637;BME280;4356;49.068;8.658;2022-12-18T14:04:30;101066.38;;;15.52;29.19
8637;BME280;4356;49.068;8.658;2022-12-18T14:07:05;101051.00;;;15.44;29.46
8637;BME280;4356;49.068;8.658;2022-12-18T14:09:37;101060.28;;;15.50;29.27
8637;BME280;4356;49.068;8.658;2022-12-18T14:12:05;101063.00;;;15.50;29.42
8637;BME280;4356;49.068;8.658;2022-12-18T14:14:51;101061.66;;;15.46;29.26
8637;BME280;4356;49.068;8.658;2022-12-18T14:17:18;101074.19;;;15.47;29.49
8637;BME280;4356;49.068;8.658;2022-12-18T14:19:46;101071.47;;;15.47;29.14
8637;BME280;4356;49.068;8.658;2022-12-18T14:22:25;101068.59;;;15.49;29.33
8637;BME280;4356;49.068;8.658;2022-12-18T14:25:25;101057.94;;;15.47;28.96
8637;BME280;4356;49.068;8.658;2022-12-18T14:28:12;101048.13;;;15.38;28.87
8637;BME280;4356;49.068;8.658;2022-12-18T14:30:41;101057.78;;;15.40;28.81
8637;BME280;4356;49.068;8.658;2022-12-18T14:33:29;101060.16;;;15.43;28.94
8637;BME280;4356;49.068;8.658;2022-12-18T14:36:03;101065.56;;;15.43;28.87
8637;BME280;4356;49.068;8.658;2022-12-18T14:41:10;101057.06;;;15.38;28.96
8637;BME280;4356;49.068;8.658;2022-12-18T14:43:39;101052.00;;;15.35;28.55
8637;BME280;4356;49.068;8.658;2022-12-18T14:46:25;101059.09;;;15.36;28.71
8637;BME280;4356;49.068;8.658;2022-12-18T14:48:52;101053.00;;;15.34;28.52
8637;BME280;4356;49.068;8.658;2022-12-18T14:51:21;101049.47;;;15.34;28.46
8637;BME280;4356;49.068;8.658;2022-12-18T14:53:55;101058.94;;;15.38;28.41